createdAt,value
2017-07-07T00:01:43.939Z,23.20
2017-07-07T00:04:12.982Z,23.20
2017-07-07T00:06:42.655Z,23.30
2017-07-07T00:09:11.446Z,23.20
2017-07-07T00:11:41.222Z,23.00
2017-07-07T00:14:09.246Z,23.00
2017-07-07T00:16:38.318Z,23.00
2017-07-07T00:19:06.330Z,23.10
2017-07-07T00:21:34.342Z,23.10
2017-07-07T00:24:03.458Z,23.10
2017-07-07T00:26:31.470Z,23.10
2017-07-07T00:28:59.482Z,23.10
2017-07-07T00:31:29.494Z,22.90
2017-07-07T00:33:57.515Z,22.70
2017-07-07T00:36:25.854Z,22.70
2017-07-07T00:38:54.030Z,22.70
2017-07-07T00:41:22.050Z,22.70
2017-07-07T00:43:50.058Z,22.70
2017-07-07T00:46:18.089Z,22.60
2017-07-07T00:48:47.162Z,22.40
2017-07-07T00:51:16.932Z,22.30
2017-07-07T00:53:44.961Z,22.30
2017-07-07T00:56:14.901Z,22.30
2017-07-07T00:58:42.941Z,22.40
2017-07-07T01:01:12.145Z,22.40
2017-07-07T01:03:41.161Z,22.30
2017-07-07T01:06:09.167Z,22.20
2017-07-07T01:08:38.967Z,22.30
2017-07-07T01:11:07.745Z,22.40
2017-07-07T01:13:40.121Z,22.40
2017-07-07T01:16:12.678Z,22.20
2017-07-07T01:18:46.393Z,21.80
2017-07-07T01:21:14.417Z,21.50
2017-07-07T01:23:42.433Z,21.30
2017-07-07T01:26:10.805Z,21.30
2017-07-07T01:28:38.821Z,21.20
2017-07-07T01:31:11.762Z,21.20
2017-07-07T01:33:43.414Z,21.10
2017-07-07T01:36:11.437Z,21.10
2017-07-07T01:38:39.465Z,21.10
2017-07-07T01:41:07.480Z,21.10
2017-07-07T01:43:35.486Z,21.10
2017-07-07T01:46:03.521Z,21.10
2017-07-07T01:48:31.765Z,21.00
2017-07-07T01:50:59.753Z,21.10
2017-07-07T01:53:28.041Z,21.20
2017-07-07T01:55:56.133Z,20.90
2017-07-07T01:58:24.145Z,20.80
2017-07-07T02:00:52.941Z,20.40
2017-07-07T02:03:21.725Z,20.30
2017-07-07T02:18:35.177Z,20.20
2017-07-07T02:21:03.193Z,20.60
2017-07-07T02:23:31.980Z,20.50
2017-07-07T02:26:00.001Z,20.50
2017-07-07T02:28:29.029Z,20.70
2017-07-07T02:30:57.040Z,20.50
2017-07-07T02:33:25.996Z,20.40
2017-07-07T02:35:56.005Z,20.20
2017-07-07T02:38:28.589Z,20.10
2017-07-07T02:41:07.337Z,20.00
2017-07-07T02:43:48.484Z,20.00
2017-07-07T02:46:19.213Z,19.90
2017-07-07T02:48:51.080Z,19.80
2017-07-07T02:51:19.565Z,19.70
2017-07-07T02:54:00.264Z,19.50
2017-07-07T02:56:32.501Z,19.50
2017-07-07T02:59:00.521Z,19.40
2017-07-07T03:01:29.444Z,19.40
2017-07-07T03:03:57.464Z,19.40
2017-07-07T03:06:25.489Z,19.30
2017-07-07T03:08:53.504Z,19.20
2017-07-07T03:11:21.546Z,19.20
2017-07-07T03:13:49.567Z,19.30
2017-07-07T03:16:17.589Z,19.30
2017-07-07T03:18:46.375Z,19.40
2017-07-07T03:21:15.195Z,19.50
2017-07-07T03:23:43.203Z,19.50
2017-07-07T03:26:11.228Z,19.60
2017-07-07T03:28:39.419Z,19.50
2017-07-07T03:31:07.435Z,19.30
2017-07-07T03:33:35.456Z,19.20
2017-07-07T03:36:03.731Z,19.40
2017-07-07T03:38:31.751Z,19.50
2017-07-07T03:40:59.811Z,19.50
2017-07-07T03:43:27.836Z,19.60
2017-07-07T03:45:55.852Z,19.60
2017-07-07T03:48:23.863Z,19.70
2017-07-07T03:50:52.060Z,19.60
2017-07-07T03:53:20.076Z,19.80
2017-07-07T03:55:49.048Z,19.80
2017-07-07T03:58:17.248Z,19.90
2017-07-07T04:00:46.027Z,19.90
2017-07-07T04:03:14.048Z,19.90
2017-07-07T04:05:42.235Z,19.90
2017-07-07T04:08:10.259Z,19.80
2017-07-07T04:10:39.027Z,19.80
2017-07-07T04:13:07.251Z,19.80
2017-07-07T04:15:35.275Z,19.90
2017-07-07T04:18:03.303Z,19.90
2017-07-07T04:20:31.563Z,19.70
2017-07-07T04:22:59.582Z,19.50
2017-07-07T04:25:27.603Z,19.50
2017-07-07T04:27:55.971Z,19.30
2017-07-07T04:30:24.908Z,19.20
2017-07-07T04:32:52.947Z,19.40
2017-07-07T04:35:21.183Z,19.30
2017-07-07T04:37:49.959Z,19.30
2017-07-07T04:40:18.743Z,19.40
2017-07-07T04:42:46.962Z,19.30
2017-07-07T04:45:14.975Z,19.50
2017-07-07T04:47:42.987Z,19.50
2017-07-07T04:50:11.286Z,19.50
2017-07-07T04:52:39.295Z,19.60
2017-07-07T04:55:07.315Z,19.50
2017-07-07T04:57:35.494Z,19.30
2017-07-07T05:00:04.515Z,19.20
2017-07-07T05:02:32.523Z,19.10
2017-07-07T05:05:01.539Z,19.20
2017-07-07T05:07:29.553Z,19.10
2017-07-07T05:09:57.571Z,19.30
2017-07-07T05:12:25.608Z,19.40
2017-07-07T05:14:53.614Z,19.40
2017-07-07T05:17:21.631Z,19.40
2017-07-07T05:19:49.647Z,19.50
2017-07-07T05:22:17.662Z,19.70
2017-07-07T05:24:45.675Z,19.80
2017-07-07T05:27:14.694Z,20.00
2017-07-07T05:29:42.703Z,20.00
2017-07-07T05:32:10.718Z,20.00
2017-07-07T05:34:39.003Z,20.10
2017-07-07T05:37:07.026Z,20.10
2017-07-07T05:39:35.031Z,19.90
2017-07-07T05:42:03.241Z,19.70
2017-07-07T05:44:32.330Z,19.40
2017-07-07T05:47:00.454Z,19.40
2017-07-07T05:49:29.403Z,19.60
2017-07-07T05:51:57.414Z,19.60
2017-07-07T05:54:26.187Z,19.50
2017-07-07T05:56:54.402Z,19.50
2017-07-07T05:59:22.413Z,19.50
2017-07-07T06:01:50.422Z,19.50
2017-07-07T06:04:18.654Z,19.40
2017-07-07T06:06:46.662Z,19.30
2017-07-07T06:09:15.437Z,19.10
2017-07-07T06:11:44.410Z,19.10
2017-07-07T06:14:12.421Z,19.00
2017-07-07T06:16:39.987Z,19.00
2017-07-07T06:19:08.386Z,19.40
2017-07-07T06:21:35.906Z,19.40
2017-07-07T06:24:04.718Z,19.50
2017-07-07T06:26:33.513Z,19.50
2017-07-07T06:29:02.586Z,19.50
2017-07-07T06:31:30.679Z,19.50
2017-07-07T06:33:58.689Z,19.50
2017-07-07T06:36:26.701Z,19.70
2017-07-07T06:38:54.729Z,19.70
2017-07-07T06:41:22.953Z,19.80
2017-07-07T06:43:50.962Z,19.80
2017-07-07T06:46:18.969Z,19.70
2017-07-07T06:48:47.986Z,19.50
2017-07-07T06:51:15.998Z,19.50
2017-07-07T06:53:44.018Z,19.50
2017-07-07T06:56:12.053Z,19.40
2017-07-07T06:58:40.065Z,19.30
2017-07-07T07:01:08.070Z,19.30
2017-07-07T07:03:36.301Z,19.20
2017-07-07T07:06:04.317Z,19.30
2017-07-07T07:08:32.326Z,19.40
2017-07-07T07:11:01.337Z,19.40
2017-07-07T07:13:29.341Z,19.40
2017-07-07T07:15:57.353Z,19.50
2017-07-07T07:18:26.301Z,19.60
2017-07-07T07:20:54.309Z,19.60
2017-07-07T07:23:22.318Z,19.80
2017-07-07T07:25:50.581Z,19.80
2017-07-07T07:28:18.596Z,19.90
2017-07-07T07:30:46.610Z,19.90
2017-07-07T07:33:14.641Z,20.10
2017-07-07T07:35:42.653Z,20.20
2017-07-07T07:38:10.665Z,20.20
2017-07-07T07:40:38.901Z,20.30
2017-07-07T07:43:06.925Z,20.30
2017-07-07T07:45:34.925Z,20.30
2017-07-07T07:48:03.117Z,20.40
2017-07-07T07:50:31.129Z,20.30
2017-07-07T07:52:59.137Z,20.40
2017-07-07T07:55:28.153Z,20.30
2017-07-07T07:57:56.165Z,20.30
2017-07-07T08:00:24.181Z,20.30
2017-07-07T08:02:52.460Z,20.40
2017-07-07T08:05:20.469Z,20.40
2017-07-07T08:07:48.477Z,20.50
2017-07-07T08:10:16.672Z,20.50
2017-07-07T08:12:44.681Z,20.50
2017-07-07T08:15:12.689Z,20.60
2017-07-07T08:17:41.705Z,20.80
2017-07-07T08:20:09.717Z,20.70
2017-07-07T08:22:37.721Z,20.90
2017-07-07T08:25:06.741Z,20.90
2017-07-07T08:27:34.744Z,20.90
2017-07-07T08:30:02.757Z,20.90
2017-07-07T08:32:31.701Z,21.10
2017-07-07T08:34:59.737Z,21.00
2017-07-07T08:37:27.745Z,21.20
2017-07-07T08:39:55.757Z,21.20
2017-07-07T08:42:24.529Z,21.40
2017-07-07T08:44:52.537Z,21.40
2017-07-07T08:47:20.610Z,21.60
2017-07-07T08:49:48.569Z,21.90
2017-07-07T08:52:16.585Z,22.00
2017-07-07T08:54:44.765Z,22.00
2017-07-07T08:57:12.777Z,22.10
2017-07-07T08:59:40.793Z,21.90
2017-07-07T09:02:08.812Z,21.70
2017-07-07T09:04:36.821Z,21.60
2017-07-07T09:07:04.825Z,21.40
2017-07-07T09:09:33.013Z,21.30
2017-07-07T09:12:01.784Z,21.20
2017-07-07T09:14:29.797Z,21.10
2017-07-07T09:16:58.073Z,21.20
2017-07-07T09:19:26.081Z,21.30
2017-07-07T09:21:54.088Z,21.30
2017-07-07T09:24:23.104Z,21.60
2017-07-07T09:26:51.112Z,21.60
2017-07-07T09:29:19.121Z,21.70
2017-07-07T09:31:47.908Z,21.80
2017-07-07T09:34:16.684Z,21.80
2017-07-07T09:36:45.465Z,21.80
2017-07-07T09:39:13.684Z,21.80
2017-07-07T09:41:41.689Z,21.90
2017-07-07T09:44:09.696Z,22.10
2017-07-07T09:46:38.713Z,22.30
2017-07-07T09:49:06.729Z,22.30
2017-07-07T09:51:34.740Z,22.50
2017-07-07T09:54:02.764Z,22.50
2017-07-07T09:56:30.780Z,22.70
2017-07-07T09:58:58.799Z,23.00
2017-07-07T10:01:27.044Z,23.10
2017-07-07T10:03:55.058Z,23.50
2017-07-07T10:06:23.071Z,23.80
2017-07-07T10:08:51.248Z,24.10
2017-07-07T10:11:19.256Z,24.40
2017-07-07T10:13:47.272Z,24.70
2017-07-07T10:16:15.448Z,24.70
2017-07-07T10:18:43.467Z,24.90
2017-07-07T10:21:11.475Z,25.00
2017-07-07T10:23:40.495Z,25.00
2017-07-07T10:26:08.508Z,25.00
2017-07-07T10:28:36.519Z,25.10
2017-07-07T10:31:04.807Z,25.30
2017-07-07T10:33:32.816Z,25.20
2017-07-07T10:36:00.828Z,25.20
2017-07-07T10:38:29.783Z,25.30
2017-07-07T10:40:57.787Z,25.20
2017-07-07T10:43:26.571Z,25.30
2017-07-07T10:45:54.588Z,25.30
2017-07-07T10:48:22.604Z,25.20
2017-07-07T10:50:51.375Z,24.60
2017-07-07T10:53:19.603Z,24.60
2017-07-07T10:55:47.616Z,24.70
2017-07-07T10:58:15.622Z,24.90
2017-07-07T11:00:43.907Z,25.10
2017-07-07T11:03:11.926Z,25.00
2017-07-07T11:05:39.936Z,24.70
2017-07-07T11:08:08.219Z,24.70
2017-07-07T11:10:36.227Z,24.70
2017-07-07T11:13:04.242Z,24.80
2017-07-07T11:15:33.194Z,25.00
2017-07-07T11:18:01.199Z,25.00
2017-07-07T11:20:29.982Z,25.20
2017-07-07T11:23:05.708Z,25.00
2017-07-07T11:25:34.091Z,25.00
2017-07-07T11:28:02.394Z,24.70
2017-07-07T11:30:31.431Z,25.00
2017-07-07T11:32:59.447Z,24.90
2017-07-07T11:35:28.500Z,25.10
2017-07-07T11:37:57.563Z,25.60
2017-07-07T11:40:25.578Z,25.60
2017-07-07T11:42:53.595Z,25.70
2017-07-07T11:45:21.839Z,26.00
2017-07-07T11:47:49.871Z,26.20
2017-07-07T11:50:17.886Z,26.30
2017-07-07T11:52:46.700Z,26.60
2017-07-07T11:55:14.731Z,26.60
2017-07-07T11:57:42.754Z,26.50
2017-07-07T12:00:10.939Z,26.10
2017-07-07T12:02:38.962Z,26.00
2017-07-07T12:05:06.971Z,26.20
2017-07-07T12:07:34.996Z,26.30
2017-07-07T12:10:03.775Z,26.20
2017-07-07T12:12:31.783Z,26.20
2017-07-07T12:14:59.811Z,26.20
2017-07-07T12:17:27.903Z,26.20
2017-07-07T12:19:55.883Z,26.30
2017-07-07T12:22:24.067Z,26.30
2017-07-07T12:24:52.973Z,26.40
2017-07-07T12:27:20.979Z,26.40
2017-07-07T12:29:48.999Z,26.60
2017-07-07T12:32:17.019Z,26.80
2017-07-07T12:34:45.039Z,26.90
2017-07-07T12:37:13.062Z,26.70
2017-07-07T12:39:41.075Z,26.90
2017-07-07T12:42:09.094Z,27.00
2017-07-07T12:44:37.114Z,27.30
2017-07-07T12:47:05.128Z,27.40
2017-07-07T12:49:33.146Z,27.70
2017-07-07T12:52:01.179Z,27.80
2017-07-07T12:54:29.190Z,27.90
2017-07-07T12:56:57.211Z,27.90
2017-07-07T12:59:25.243Z,27.90
2017-07-07T13:01:53.255Z,28.20
2017-07-07T13:04:21.258Z,28.50
2017-07-07T13:06:49.289Z,28.60
2017-07-07T13:09:17.299Z,28.70
2017-07-07T13:11:45.314Z,28.90
2017-07-07T13:14:13.353Z,28.90
2017-07-07T13:16:41.358Z,28.90
2017-07-07T13:19:09.383Z,28.90
2017-07-07T13:21:37.673Z,28.90
2017-07-07T13:24:05.678Z,29.00
2017-07-07T13:26:33.690Z,29.00
2017-07-07T13:29:02.481Z,29.00
2017-07-07T13:31:30.497Z,29.00
2017-07-07T13:33:58.510Z,29.20
2017-07-07T13:36:27.513Z,29.60
2017-07-07T13:38:55.538Z,29.60
2017-07-07T13:41:23.559Z,29.50
2017-07-07T13:43:51.574Z,29.60
2017-07-07T13:46:19.589Z,29.30
2017-07-07T13:48:47.614Z,29.20
2017-07-07T13:51:15.634Z,29.20
2017-07-07T13:53:43.642Z,29.20
2017-07-07T13:56:11.653Z,29.10
2017-07-07T13:58:40.472Z,29.10
2017-07-07T14:01:08.481Z,29.10
2017-07-07T14:03:36.490Z,28.80
2017-07-07T14:06:05.277Z,29.20
2017-07-07T14:08:33.289Z,29.20
2017-07-07T14:11:01.290Z,29.30
2017-07-07T14:13:29.309Z,29.50
2017-07-07T14:15:57.317Z,29.80
2017-07-07T14:18:25.322Z,29.80
2017-07-07T14:20:53.336Z,29.90
2017-07-07T14:23:21.344Z,30.00
2017-07-07T14:25:50.126Z,30.10
2017-07-07T14:28:18.154Z,30.00
2017-07-07T14:30:46.161Z,30.10
2017-07-07T14:33:14.185Z,30.30
2017-07-07T14:35:42.461Z,30.50
2017-07-07T14:38:10.469Z,30.60
2017-07-07T14:40:38.484Z,30.50
2017-07-07T14:43:06.500Z,30.60
2017-07-07T14:45:34.525Z,30.60
2017-07-07T14:48:02.544Z,30.30
2017-07-07T14:50:30.565Z,30.40
2017-07-07T14:52:58.581Z,30.40
2017-07-07T14:55:26.589Z,30.50
2017-07-07T14:57:54.609Z,30.30
2017-07-07T15:00:22.625Z,30.40
2017-07-07T15:02:50.724Z,30.60
2017-07-07T15:05:18.748Z,30.60
2017-07-07T15:07:46.756Z,30.60
2017-07-07T15:10:14.772Z,30.60
2017-07-07T15:12:42.801Z,30.70
2017-07-07T15:15:10.808Z,30.70
2017-07-07T15:17:38.828Z,30.70
2017-07-07T15:20:07.007Z,30.60
2017-07-07T15:22:35.019Z,30.70
2017-07-07T15:25:03.039Z,30.80
2017-07-07T15:27:31.231Z,30.70
2017-07-07T15:29:59.248Z,30.80
2017-07-07T15:32:27.271Z,30.80
2017-07-07T15:34:55.284Z,30.80
2017-07-07T15:37:23.291Z,30.80
2017-07-07T15:39:51.308Z,30.70
2017-07-07T15:42:19.331Z,30.60
2017-07-07T15:44:47.347Z,30.50
2017-07-07T15:47:15.359Z,30.40
2017-07-07T15:49:43.663Z,30.30
2017-07-07T15:52:11.675Z,30.30
2017-07-07T15:54:39.703Z,30.20
2017-07-07T15:57:07.723Z,30.20
2017-07-07T15:59:35.732Z,30.20
2017-07-07T16:02:03.739Z,30.30
2017-07-07T16:04:32.019Z,30.30
2017-07-07T16:06:59.989Z,30.30
2017-07-07T16:09:27.995Z,30.30
2017-07-07T16:11:56.779Z,30.30
2017-07-07T16:14:24.787Z,30.30
2017-07-07T16:16:52.794Z,30.20
2017-07-07T16:19:20.810Z,30.10
2017-07-07T16:21:48.823Z,30.00
2017-07-07T16:24:16.826Z,29.90
2017-07-07T16:26:45.611Z,29.60
2017-07-07T16:29:14.383Z,29.50
2017-07-07T16:31:42.391Z,29.50
2017-07-07T16:34:10.411Z,29.50
2017-07-07T16:36:38.423Z,29.40
2017-07-07T16:39:06.439Z,29.50
2017-07-07T16:41:34.463Z,29.40
2017-07-07T16:44:02.510Z,29.40
2017-07-07T16:46:31.282Z,29.30
2017-07-07T16:48:59.313Z,29.30
2017-07-07T16:51:27.302Z,29.30
2017-07-07T16:53:55.309Z,29.30
2017-07-07T16:56:23.330Z,29.40
2017-07-07T16:58:51.353Z,29.40
2017-07-07T17:01:20.122Z,29.70
2017-07-07T17:03:48.158Z,29.70
2017-07-07T17:06:16.212Z,29.80
2017-07-07T17:08:44.171Z,29.90
2017-07-07T17:11:12.186Z,30.00
2017-07-07T17:13:40.190Z,30.00
2017-07-07T17:16:08.194Z,29.90
2017-07-07T17:18:36.215Z,29.90
2017-07-07T17:21:04.231Z,29.90
2017-07-07T17:23:32.242Z,29.90
2017-07-07T17:26:00.262Z,29.80
2017-07-07T17:28:28.269Z,29.70
2017-07-07T17:30:56.276Z,29.60
2017-07-07T17:33:24.290Z,29.60
2017-07-07T17:35:52.296Z,29.50
2017-07-07T17:38:20.311Z,29.40
2017-07-07T17:40:48.331Z,29.40
2017-07-07T17:43:16.338Z,29.40
2017-07-07T17:45:44.353Z,29.40
2017-07-07T17:48:12.362Z,29.50
2017-07-07T17:50:41.143Z,29.50
2017-07-07T17:53:09.915Z,29.50
2017-07-07T17:55:37.934Z,29.50
2017-07-07T17:58:05.946Z,29.50
2017-07-07T18:00:33.958Z,29.50
2017-07-07T18:03:01.987Z,29.40
2017-07-07T18:05:29.986Z,29.40
2017-07-07T18:07:58.758Z,29.30
2017-07-07T18:10:26.777Z,29.30
2017-07-07T18:12:54.794Z,29.30
2017-07-07T18:15:22.802Z,29.20
2017-07-07T18:17:51.077Z,29.20
2017-07-07T18:20:19.090Z,29.00
2017-07-07T18:22:47.102Z,29.00
2017-07-07T18:25:15.289Z,29.00
2017-07-07T18:27:43.350Z,29.00
2017-07-07T18:30:12.122Z,28.80
2017-07-07T18:32:41.145Z,28.60
2017-07-07T18:35:09.161Z,28.60
2017-07-07T18:37:37.175Z,28.40
2017-07-07T18:40:05.202Z,28.30
2017-07-07T18:42:33.213Z,28.20
2017-07-07T18:45:01.231Z,28.10
2017-07-07T18:47:29.254Z,28.00
2017-07-07T18:49:57.265Z,28.00
2017-07-07T18:52:25.274Z,27.90
2017-07-07T18:54:54.067Z,27.90
2017-07-07T18:57:22.845Z,27.80
2017-07-07T18:59:50.893Z,27.80
2017-07-07T19:02:19.085Z,27.70
2017-07-07T19:04:47.100Z,27.60
2017-07-07T19:07:15.117Z,27.20
2017-07-07T19:09:43.137Z,27.10
2017-07-07T19:12:11.149Z,27.00
2017-07-07T19:14:39.161Z,27.00
2017-07-07T19:17:07.189Z,27.00
2017-07-07T19:19:35.210Z,26.90
2017-07-07T19:22:03.222Z,26.90
2017-07-07T19:24:31.439Z,26.90
2017-07-07T19:26:59.962Z,26.90
2017-07-07T19:29:27.958Z,26.80
2017-07-07T19:31:56.283Z,26.50
2017-07-07T19:34:24.289Z,26.40
2017-07-07T19:36:52.298Z,26.30
2017-07-07T19:39:21.383Z,26.20
2017-07-07T19:41:50.181Z,26.10
2017-07-07T19:44:18.954Z,26.00
2017-07-07T19:46:47.763Z,25.90
2017-07-07T19:49:15.775Z,25.90
2017-07-07T19:51:44.699Z,25.90
2017-07-07T19:54:17.810Z,25.70
2017-07-07T19:56:47.946Z,25.70
2017-07-07T19:59:16.131Z,25.60
2017-07-07T20:01:44.151Z,25.50
2017-07-07T20:04:12.167Z,25.40
2017-07-07T20:06:40.370Z,25.40
2017-07-07T20:09:09.366Z,25.30
2017-07-07T20:11:38.367Z,25.20
2017-07-07T20:14:08.564Z,25.20
2017-07-07T20:16:36.582Z,25.10
2017-07-07T20:19:06.282Z,25.00
2017-07-07T20:21:35.445Z,25.00
2017-07-07T20:24:04.466Z,25.00
2017-07-07T20:26:35.570Z,24.90
2017-07-07T20:29:03.598Z,24.80
2017-07-07T20:31:32.559Z,24.80
2017-07-07T20:34:00.690Z,24.60
2017-07-07T20:36:28.714Z,24.70
2017-07-07T20:38:56.735Z,24.70
2017-07-07T20:41:24.927Z,24.60
2017-07-07T20:43:57.112Z,24.50
2017-07-07T20:46:26.215Z,24.30
2017-07-07T20:48:57.335Z,24.10
2017-07-07T20:51:29.030Z,23.80
2017-07-07T20:53:59.746Z,23.80
2017-07-07T20:56:27.767Z,23.80
2017-07-07T20:58:56.967Z,23.80
2017-07-07T21:01:28.763Z,23.80
2017-07-07T21:03:57.699Z,23.80
2017-07-07T21:06:26.619Z,23.80
2017-07-07T21:09:00.435Z,23.80
2017-07-07T21:11:28.447Z,23.80
2017-07-07T21:13:58.227Z,23.90
2017-07-07T21:16:27.230Z,23.80
2017-07-07T21:18:56.219Z,23.80
2017-07-07T21:21:24.242Z,23.80
2017-07-07T21:23:52.274Z,23.80
2017-07-07T21:26:20.302Z,23.70
2017-07-07T21:28:49.318Z,23.50
2017-07-07T21:31:17.362Z,23.30
2017-07-07T21:33:46.394Z,23.20
2017-07-07T21:36:14.429Z,23.10
2017-07-07T21:38:44.377Z,23.20
2017-07-07T21:41:12.402Z,23.20
2017-07-07T21:43:44.398Z,23.20
2017-07-07T21:46:12.414Z,23.20
2017-07-07T21:48:43.834Z,23.20
2017-07-07T21:51:12.623Z,22.70
2017-07-07T21:53:44.278Z,22.70
2017-07-07T21:56:12.287Z,22.70
2017-07-07T21:58:40.310Z,22.70
2017-07-07T22:01:08.323Z,22.80
2017-07-07T22:03:42.063Z,22.80
2017-07-07T22:06:11.974Z,22.80
2017-07-07T22:08:44.430Z,22.70
2017-07-07T22:11:12.418Z,22.70
2017-07-07T22:13:43.450Z,22.80
2017-07-07T22:16:12.594Z,22.70
2017-07-07T22:18:46.070Z,22.60
2017-07-07T22:21:15.022Z,22.60
2017-07-07T22:23:43.054Z,22.60
2017-07-07T22:26:12.739Z,22.60
2017-07-07T22:28:41.742Z,22.60
2017-07-07T22:31:09.790Z,22.60
2017-07-07T22:33:37.786Z,22.60
2017-07-07T22:36:08.587Z,22.60
2017-07-07T22:38:43.930Z,22.50
2017-07-07T22:41:11.970Z,22.20
2017-07-07T22:43:48.259Z,22.10
2017-07-07T22:46:16.303Z,22.20
2017-07-07T22:48:48.829Z,22.10
2017-07-07T22:51:18.847Z,22.00
2017-07-07T22:53:47.826Z,21.90
2017-07-07T22:56:15.846Z,21.80
2017-07-07T22:58:44.958Z,21.70
2017-07-07T23:01:12.966Z,21.80
2017-07-07T23:03:41.003Z,21.90
2017-07-07T23:06:09.021Z,21.90
2017-07-07T23:08:38.815Z,22.00
2017-07-07T23:11:06.834Z,22.00
2017-07-07T23:13:36.822Z,22.00
2017-07-07T23:16:10.101Z,22.00
2017-07-07T23:18:38.142Z,22.00
2017-07-07T23:21:06.168Z,22.00
2017-07-07T23:23:34.185Z,22.00
2017-07-07T23:26:02.221Z,21.80
2017-07-07T23:28:30.289Z,21.70
2017-07-07T23:31:00.276Z,21.60
2017-07-07T23:33:29.260Z,21.60
2017-07-07T23:36:07.756Z,21.60
2017-07-07T23:38:35.785Z,21.50
2017-07-07T23:41:04.733Z,21.40
2017-07-07T23:43:32.769Z,21.40
2017-07-07T23:46:00.796Z,21.40
2017-07-07T23:48:28.820Z,21.40
2017-07-07T23:50:58.748Z,21.50
2017-07-07T23:53:28.792Z,21.60
2017-07-07T23:55:56.808Z,21.60
2017-07-07T23:58:24.827Z,21.50
